Time;durP1;ratioP1;P1;durP2;ratioP2;P2;SDS_P1;SDS_P2;PMS_P1;PMS_P2;Temp;Humidity;BMP_temperature;BMP_pressure;BME280_temperature;BME280_humidity;BME280_pressure;Samples;Min_cycle;Max_cycle;Signal;HPM_P1;HPM_P2
2022/01/01 00:00:13;;;;;;;27.63;17.58;;;;;;;15.82;61.06;101661.78;685362;28;1322;-85
2022/01/01 00:00:34;;;;;;;27.08;16.95;;;;;;;15.89;61.09;101657.53;682121;29;1924;-83
2022/01/01 00:00:54;;;;;;;25.20;16.60;;;;;;;15.83;61.03;101660.03;682759;29;1407;-85
2022/01/01 00:01:15;;;;;;;25.60;16.67;;;;;;;15.75;61.13;101652.00;680005;29;1201;-85
2022/01/01 00:01:36;;;;;;;27.00;17.55;;;;;;;15.78;61.34;101659.06;685359;28;1286;-85
2022/01/01 00:01:57;;;;;;;26.65;17.50;;;;;;;15.72;61.51;101644.03;680077;29;1292;-84
2022/01/01 00:02:17;;;;;;;25.63;17.88;;;;;;;15.79;61.45;101666.97;679986;28;1226;-85
2022/01/01 00:02:38;;;;;;;26.10;17.80;;;;;;;15.72;61.34;101660.72;685394;28;1173;-84
2022/01/01 00:03:00;;;;;;;26.92;18.25;;;;;;;15.75;61.32;101665.16;680231;29;1088;-84
2022/01/01 00:03:20;;;;;;;26.52;17.30;;;;;;;15.75;61.42;101657.25;680750;29;1272;-85
2022/01/01 00:03:41;;;;;;;27.40;17.43;;;;;;;15.68;61.49;101657.97;677700;29;978;-84
2022/01/01 00:04:01;;;;;;;26.73;18.20;;;;;;;15.72;61.60;101665.06;682655;28;1037;-85
2022/01/01 00:04:22;;;;;;;26.00;18.40;;;;;;;15.71;61.56;101658.94;680043;29;1194;-84
2022/01/01 00:04:43;;;;;;;25.13;18.20;;;;;;;15.74;61.49;101664.25;682683;29;1074;-84
2022/01/01 00:05:08;;;;;;;28.02;18.65;;;;;;;15.74;61.52;101666.88;677428;29;1424;-84
2022/01/01 00:05:28;;;;;;;31.13;19.45;;;;;;;15.70;61.59;101656.25;682655;29;1365;-84
2022/01/01 00:05:48;;;;;;;32.63;19.40;;;;;;;15.67;61.43;101650.94;685471;28;1149;-85
2022/01/01 00:06:09;;;;;;;29.27;18.52;;;;;;;15.65;61.59;101653.53;680119;29;1179;-84
2022/01/01 00:06:30;;;;;;;30.15;19.15;;;;;;;15.70;61.62;101657.16;683204;28;1371;-85
2022/01/01 00:06:50;;;;;;;33.23;19.30;;;;;;;15.78;61.58;101674.88;680080;29;1128;-85
2022/01/01 00:07:11;;;;;;;32.63;19.33;;;;;;;15.67;61.54;101653.59;677633;29;1108;-84
2022/01/01 00:07:32;;;;;;;30.95;19.08;;;;;;;15.76;61.67;101666.94;682559;29;1243;-85
2022/01/01 00:07:53;;;;;;;29.88;19.48;;;;;;;15.66;61.54;101655.31;682654;29;1660;-84
2022/01/01 00:08:16;;;;;;;34.33;20.63;;;;;;;15.66;61.61;101664.97;677137;29;1245;-84
2022/01/01 00:08:36;;;;;;;33.25;19.83;;;;;;;15.67;61.87;101664.09;677567;29;768;-84
2022/01/01 00:08:57;;;;;;;31.00;19.67;;;;;;;15.67;61.80;101661.47;680049;29;1179;-84
2022/01/01 00:09:17;;;;;;;28.67;18.43;;;;;;;15.68;61.83;101669.38;674412;29;1294;-84
2022/01/01 00:09:41;;;;;;;28.85;18.80;;;;;;;15.61;61.83;101647.31;676675;29;1292;-84
2022/01/01 00:10:03;;;;;;;28.45;18.40;;;;;;;15.62;61.81;101648.22;677430;29;963;-85
2022/01/01 00:10:23;;;;;;;27.90;18.50;;;;;;;15.61;61.96;101652.59;677175;29;1253;-85
2022/01/01 00:10:44;;;;;;;26.70;18.40;;;;;;;15.65;61.84;101658.81;677349;29;1277;-85
2022/01/01 00:11:04;;;;;;;27.15;18.27;;;;;;;15.71;61.90;101664.19;682607;29;1457;-85
2022/01/01 00:11:25;;;;;;;28.73;18.40;;;;;;;15.65;61.81;101648.28;685520;28;1182;-85
2022/01/01 00:11:45;;;;;;;29.30;18.98;;;;;;;15.70;61.76;101653.63;677428;28;1316;-85
2022/01/01 00:12:07;;;;;;;28.93;19.07;;;;;;;15.76;61.73;101661.66;678067;29;1194;-84
2022/01/01 00:12:28;;;;;;;28.27;18.75;;;;;;;15.78;61.70;101664.34;679674;29;1286;-85
2022/01/01 00:12:48;;;;;;;28.23;18.40;;;;;;;15.73;61.65;101651.09;682686;29;1174;-84
2022/01/01 00:13:09;;;;;;;26.50;19.17;;;;;;;15.78;61.60;101652.03;677676;29;1042;-85
2022/01/01 00:13:29;;;;;;;29.50;20.77;;;;;;;15.75;61.52;101660.75;679230;29;1188;-85
2022/01/01 00:13:50;;;;;;;33.75;22.45;;;;;;;15.78;61.62;101656.44;680201;29;1241;-85
2022/01/01 00:14:11;;;;;;;34.67;22.47;;;;;;;15.78;61.53;101653.81;684948;28;1329;-84
2022/01/01 00:14:31;;;;;;;32.67;21.23;;;;;;;15.80;61.84;101658.22;682662;29;1347;-84
2022/01/01 00:15:00;;;;;;;30.77;19.45;;;;;;;15.82;61.44;101660.91;677608;29;1115;-85
2022/01/01 00:15:21;;;;;;;30.98;19.38;;;;;;;15.81;61.47;101659.13;678077;29;1172;-85
2022/01/01 00:15:41;;;;;;;28.80;19.60;;;;;;;15.79;61.67;101661.72;686752;28;1135;-85
2022/01/01 00:16:03;;;;;;;32.10;20.50;;;;;;;15.74;61.47;101651.09;688032;28;1188;-85
2022/01/01 00:16:23;;;;;;;29.35;19.77;;;;;;;15.71;61.66;101645.78;678554;29;1345;-85
2022/01/01 00:16:44;;;;;;;29.08;20.20;;;;;;;15.70;61.77;101645.75;681260;28;1832;-85
2022/01/01 00:17:06;;;;;;;27.02;20.00;;;;;;;15.79;61.63;101653.81;674668;29;1153;-85
2022/01/01 00:17:27;;;;;;;29.65;20.30;;;;;;;15.73;61.49;101645.81;672249;29;1225;-84
2022/01/01 00:17:48;;;;;;;30.17;20.15;;;;;;;15.77;61.73;101650.28;677515;29;1344;-85
2022/01/01 00:18:09;;;;;;;29.63;19.65;;;;;;;15.76;61.77;101656.41;677469;29;1403;-85
2022/01/01 00:18:29;;;;;;;29.90;19.67;;;;;;;15.69;61.66;101643.97;672294;29;1201;-85
2022/01/01 00:18:50;;;;;;;31.15;19.60;;;;;;;15.74;61.72;101648.47;677502;29;1508;-85
2022/01/01 00:19:11;;;;;;;31.02;19.30;;;;;;;15.68;61.71;101642.19;677529;29;1268;-84
2022/01/01 00:19:31;;;;;;;29.20;18.83;;;;;;;15.70;61.64;101656.25;682448;29;1311;-85
2022/01/01 00:19:52;;;;;;;27.00;18.70;;;;;;;15.70;61.74;101658.91;677491;29;1168;-84
2022/01/01 00:20:14;;;;;;;25.63;18.42;;;;;;;15.66;61.87;101651.81;674968;29;1283;-85
2022/01/01 00:20:34;;;;;;;26.92;18.67;;;;;;;15.68;61.95;101647.47;674321;29;1911;-84
2022/01/01 00:20:55;;;;;;;30.57;19.53;;;;;;;15.76;61.76;101666.94;677511;29;1139;-85
2022/01/01 00:21:16;;;;;;;33.10;20.65;;;;;;;15.67;61.76;101646.56;682462;29;1228;-85
2022/01/01 00:21:37;;;;;;;34.50;20.52;;;;;;;15.68;61.71;101647.47;680275;29;855;-84
2022/01/01 00:22:01;;;;;;;31.95;19.60;;;;;;;15.73;61.87;101661.63;677378;28;1130;-84
2022/01/01 00:22:22;;;;;;;29.13;18.85;;;;;;;15.62;61.82;101657.00;680885;29;1342;-85
2022/01/01 00:22:43;;;;;;;28.47;19.50;;;;;;;15.74;61.80;101668.66;679812;29;1166;-85
2022/01/01 00:23:04;;;;;;;27.50;19.67;;;;;;;15.65;62.13;101657.91;682714;28;1482;-85
2022/01/01 00:23:24;;;;;;;31.43;20.10;;;;;;;15.57;62.03;101658.66;683958;28;1278;-85
2022/01/01 00:23:45;;;;;;;31.25;20.30;;;;;;;15.62;61.93;101664.88;678769;28;1271;-85
2022/01/01 00:24:05;;;;;;;31.60;20.30;;;;;;;15.66;62.09;101659.72;677524;29;1167;-85
2022/01/01 00:24:26;;;;;;;30.15;20.88;;;;;;;15.72;61.96;101672.97;680163;29;1143;-84
2022/01/01 00:24:47;;;;;;;31.03;21.00;;;;;;;15.72;61.97;101670.34;677487;29;1247;-85
2022/01/01 00:25:08;;;;;;;33.50;21.30;;;;;;;15.64;61.88;101662.28;680021;29;1211;-84
2022/01/01 00:25:29;;;;;;;35.17;22.10;;;;;;;15.70;61.92;101672.06;679196;29;1263;-85
2022/01/01 00:25:49;;;;;;;33.40;22.63;;;;;;;15.68;61.79;101668.50;680114;29;1257;-85
2022/01/01 00:26:10;;;;;;;30.77;22.88;;;;;;;15.58;61.95;101660.44;682688;29;1311;-84
2022/01/01 00:26:30;;;;;;;30.40;22.60;;;;;;;15.62;62.12;101675.41;680038;29;1273;-84
2022/01/01 00:26:51;;;;;;;30.27;21.80;;;;;;;15.65;62.03;101684.22;674882;29;1183;-85
2022/01/01 00:27:11;;;;;;;30.27;20.90;;;;;;;15.62;62.12;101666.66;682643;29;1150;-85
2022/01/01 00:27:38;;;;;;;30.97;20.37;;;;;;;15.61;62.05;101668.38;680051;28;1247;-85
2022/01/01 00:27:59;;;;;;;29.80;20.02;;;;;;;15.63;62.02;101665.78;674690;29;1665;-84
2022/01/01 00:28:19;;;;;;;29.00;20.10;;;;;;;15.66;62.00;101675.50;675355;29;1204;-84
2022/01/01 00:28:40;;;;;;;29.10;19.58;;;;;;;15.61;61.97;101664.88;678734;29;791;-84
2022/01/01 00:29:01;;;;;;;30.05;20.20;;;;;;;15.69;61.95;101665.91;680035;29;1237;-84
2022/01/01 00:29:21;;;;;;;30.52;19.95;;;;;;;15.63;61.95;101661.38;680209;29;1192;-84
2022/01/01 00:29:42;;;;;;;31.13;20.13;;;;;;;15.61;61.99;101670.13;677560;29;1142;-85
2022/01/01 00:30:17;;;;;;;31.40;19.77;;;;;;;15.58;62.22;101675.31;682205;28;1524;-85
2022/01/01 00:30:38;;;;;;;30.10;18.85;;;;;;;15.55;62.35;101678.75;685139;28;1524;-85
2022/01/01 00:30:59;;;;;;;32.60;20.13;;;;;;;15.56;62.19;101674.41;682731;28;1234;-85
2022/01/01 00:31:19;;;;;;;31.25;20.55;;;;;;;15.59;62.21;101672.72;684664;28;1197;-85
2022/01/01 00:31:40;;;;;;;32.50;21.30;;;;;;;15.59;62.26;101667.47;680120;29;820;-84
2022/01/01 00:32:00;;;;;;;29.70;20.17;;;;;;;15.61;62.24;101667.50;685350;28;1164;-85
2022/01/01 00:32:21;;;;;;;30.60;20.67;;;;;;;15.60;62.18;101665.69;680746;29;1219;-85
2022/01/01 00:32:41;;;;;;;30.27;20.57;;;;;;;15.61;62.20;101676.25;685350;28;1186;-84
2022/01/01 00:33:08;;;;;;;30.08;20.60;;;;;;;15.65;62.16;101671.06;682933;29;721;-85
2022/01/01 00:33:29;;;;;;;30.73;20.08;;;;;;;15.62;62.29;101675.41;686924;28;1275;-85
2022/01/01 00:33:49;;;;;;;32.10;20.40;;;;;;;15.58;62.17;101667.41;685410;28;1195;-85
2022/01/01 00:34:11;;;;;;;34.03;20.50;;;;;;;15.61;62.21;101678.91;677442;29;1065;-84
2022/01/01 00:34:34;;;;;;;33.08;20.40;;;;;;;15.61;62.25;101678.91;674503;29;1279;-84
2022/01/01 00:34:54;;;;;;;30.58;20.02;;;;;;;15.56;62.37;101670.00;677480;29;1573;-85
2022/01/01 00:35:15;;;;;;;28.75;20.20;;;;;;;15.58;62.47;101668.31;680030;29;1298;-85
2022/01/01 00:35:36;;;;;;;33.93;21.53;;;;;;;15.57;62.37;101671.81;674850;29;1180;-85
2022/01/01 00:35:56;;;;;;;34.90;21.80;;;;;;;15.57;62.27;101658.66;679997;29;1231;-85
2022/01/01 00:36:17;;;;;;;36.80;21.88;;;;;;;15.57;62.04;101669.19;680017;29;1509;-85
2022/01/01 00:36:38;;;;;;;34.63;22.02;;;;;;;15.67;61.92;101672.88;685173;28;1353;-84
2022/01/01 00:36:59;;;;;;;34.53;21.67;;;;;;;15.63;62.12;101674.56;677441;29;1402;-84
2022/01/01 00:37:20;;;;;;;32.37;21.17;;;;;;;15.57;62.19;101666.53;679926;29;1224;-85
2022/01/01 00:37:40;;;;;;;30.27;20.58;;;;;;;15.62;62.25;101670.16;677569;29;1237;-85
2022/01/01 00:38:01;;;;;;;30.07;20.80;;;;;;;15.53;62.21;101654.16;674891;29;1016;-84
2022/01/01 00:38:21;;;;;;;32.35;21.33;;;;;;;15.51;62.24;101663.78;682570;28;1450;-85
2022/01/01 00:38:42;;;;;;;39.27;24.10;;;;;;;15.54;62.37;101666.47;680000;29;1318;-85
2022/01/01 00:39:03;;;;;;;50.63;29.00;;;;;;;15.59;62.36;101672.72;679871;29;1214;-85
2022/01/01 00:39:23;;;;;;;57.88;32.65;;;;;;;15.51;62.50;101662.88;672760;29;1195;-85
2022/01/01 00:39:44;;;;;;;57.13;33.63;;;;;;;15.58;62.27;101668.31;682776;29;1175;-85
2022/01/01 00:40:05;;;;;;;48.47;31.00;;;;;;;15.59;62.35;101669.19;682379;29;1315;-85
2022/01/01 00:40:25;;;;;;;41.03;27.65;;;;;;;15.54;62.19;101663.81;679713;28;1910;-85
2022/01/01 00:40:46;;;;;;;34.13;23.45;;;;;;;15.56;62.28;101663.88;682912;28;1255;-85
2022/01/01 00:41:07;;;;;;;33.30;22.20;;;;;;;15.55;62.20;101662.09;682668;28;1179;-85
2022/01/01 00:41:27;;;;;;;32.92;21.55;;;;;;;15.46;62.30;101661.03;685095;28;1352;-85
2022/01/01 00:41:48;;;;;;;32.97;21.92;;;;;;;15.58;62.58;101672.69;677337;29;1190;-85
2022/01/01 00:42:09;;;;;;;32.63;21.83;;;;;;;15.60;62.25;101677.13;679970;29;1196;-85
2022/01/01 00:42:29;;;;;;;35.08;21.83;;;;;;;15.54;62.27;101666.47;681670;29;1457;-85
2022/01/01 00:42:50;;;;;;;36.17;21.63;;;;;;;15.54;62.46;101671.72;682749;29;1126;-85
2022/01/01 00:43:10;;;;;;;36.70;21.13;;;;;;;15.57;62.51;101670.91;682604;29;1177;-85
2022/01/01 00:43:31;;;;;;;36.15;20.92;;;;;;;15.62;62.38;101670.16;682552;28;1392;-84
2022/01/01 00:43:52;;;;;;;36.85;21.48;;;;;;;15.53;62.23;101659.44;685337;28;1254;-85
2022/01/01 00:44:13;;;;;;;35.90;21.60;;;;;;;15.57;62.51;101670.91;680097;29;1258;-85
2022/01/01 00:44:33;;;;;;;32.38;21.10;;;;;;;15.55;62.47;101678.75;684409;28;1219;-85
2022/01/01 00:44:55;;;;;;;31.90;20.80;;;;;;;15.60;62.31;101686.75;683925;28;1170;-84
2022/01/01 00:45:16;;;;;;;32.05;21.05;;;;;;;15.60;62.58;101685.03;677022;29;1558;-85
2022/01/01 00:45:36;;;;;;;32.67;21.23;;;;;;;15.54;62.26;101668.22;680113;29;811;-84
2022/01/01 00:45:57;;;;;;;30.30;21.20;;;;;;;15.47;62.43;101665.44;682672;29;1012;-85
2022/01/01 00:46:17;;;;;;;29.73;20.77;;;;;;;15.53;62.48;101677.84;682735;29;1215;-84
2022/01/01 00:46:38;;;;;;;31.50;21.70;;;;;;;15.57;62.28;101670.91;685320;28;1182;-85
2022/01/01 00:46:59;;;;;;;30.73;21.30;;;;;;;15.58;62.31;101677.94;682729;28;1308;-85
2022/01/01 00:47:19;;;;;;;31.95;21.55;;;;;;;15.61;62.33;101683.28;679950;29;1351;-85
2022/01/01 00:47:40;;;;;;;29.77;20.87;;;;;;;15.57;62.27;101670.91;680166;28;1335;-84
2022/01/01 00:48:00;;;;;;;33.55;21.13;;;;;;;15.60;62.35;101676.22;682582;29;1323;-85
2022/01/01 00:48:21;;;;;;;34.57;21.53;;;;;;;15.53;62.24;101659.44;681830;28;1179;-85
2022/01/01 00:48:41;;;;;;;41.92;22.02;;;;;;;15.66;62.04;101671.09;680192;29;852;-85
2022/01/01 00:49:03;;;;;;;39.47;21.60;;;;;;;15.63;62.15;101661.38;675142;29;1174;-85
2022/01/01 00:49:23;;;;;;;38.38;20.55;;;;;;;15.60;62.20;101666.59;683268;28;1342;-85
2022/01/01 00:49:44;;;;;;;31.13;20.08;;;;;;;15.57;61.89;101666.53;682539;29;1190;-84
2022/01/01 00:50:05;;;;;;;30.13;19.80;;;;;;;15.57;62.11;101657.75;679735;29;1329;-85
2022/01/01 00:50:26;;;;;;;30.97;20.17;;;;;;;15.56;62.15;101664.75;675929;29;1248;-85
2022/01/01 00:50:46;;;;;;;29.95;19.80;;;;;;;15.52;62.28;101657.66;682710;29;1196;-85
2022/01/01 00:51:07;;;;;;;31.08;20.00;;;;;;;15.54;62.23;101666.47;680142;29;1226;-85
2022/01/01 00:51:27;;;;;;;31.80;20.37;;;;;;;15.54;62.09;101661.19;678227;29;1273;-85
2022/01/01 00:51:48;;;;;;;35.65;20.60;;;;;;;15.59;62.28;101672.72;674854;29;1167;-85
2022/01/01 00:52:09;;;;;;;36.42;20.80;;;;;;;15.56;62.24;101659.47;679990;29;1154;-85
2022/01/01 00:52:30;;;;;;;38.08;20.55;;;;;;;15.61;62.36;101671.00;680071;29;1298;-85
2022/01/01 00:52:52;;;;;;;35.35;20.90;;;;;;;15.55;62.18;101657.72;677267;29;1466;-85
2022/01/01 00:53:12;;;;;;;31.85;20.70;;;;;;;15.60;62.26;101666.59;673561;29;1716;-84
2022/01/01 00:53:33;;;;;;;29.73;20.67;;;;;;;15.53;62.44;101655.91;682121;28;1359;-85
2022/01/01 00:53:54;;;;;;;30.40;20.65;;;;;;;15.63;62.40;101676.31;685302;28;1474;-85
2022/01/01 00:54:14;;;;;;;31.07;20.60;;;;;;;15.58;62.05;101668.31;680550;28;1257;-85
2022/01/01 00:54:35;;;;;;;31.00;20.60;;;;;;;15.61;62.30;101670.13;677216;29;1148;-84
2022/01/01 00:54:55;;;;;;;31.80;20.70;;;;;;;15.52;62.25;101660.28;680053;29;1291;-84
2022/01/01 00:55:16;;;;;;;35.07;20.60;;;;;;;15.57;62.25;101661.28;677231;29;1216;-84
2022/01/01 00:55:37;;;;;;;37.38;20.65;;;;;;;15.59;62.12;101670.09;678426;29;1255;-84
2022/01/01 00:55:58;;;;;;;36.40;20.20;;;;;;;15.56;62.12;101664.75;679999;29;1202;-85
2022/01/01 00:56:18;;;;;;;33.20;19.67;;;;;;;15.53;62.01;101664.69;676522;28;1284;-85
2022/01/01 00:56:39;;;;;;;31.17;19.40;;;;;;;15.59;62.45;101680.63;680191;29;746;-84
2022/01/01 00:56:59;;;;;;;30.85;19.40;;;;;;;15.56;62.31;101683.16;679877;29;1150;-84
2022/01/01 00:57:20;;;;;;;32.70;20.10;;;;;;;15.56;62.34;101669.13;680095;29;942;-84
2022/01/01 00:57:40;;;;;;;31.63;19.98;;;;;;;15.56;62.26;101680.53;674675;29;1195;-84
2022/01/01 00:58:01;;;;;;;31.90;20.63;;;;;;;15.59;62.37;101685.88;674646;29;1255;-84
2022/01/01 00:58:22;;;;;;;32.55;20.23;;;;;;;15.55;62.35;101662.97;677429;29;1089;-85
2022/01/01 00:58:42;;;;;;;34.67;20.17;;;;;;;15.56;62.27;101667.38;685235;28;1156;-85
2022/01/01 00:59:03;;;;;;;35.28;20.05;;;;;;;15.60;62.21;101670.97;682401;28;1248;-85
2022/01/01 00:59:24;;;;;;;31.93;19.97;;;;;;;15.60;62.10;101656.06;680422;28;1312;-85
2022/01/01 00:59:44;;;;;;;29.88;19.42;;;;;;;15.67;61.89;101672.00;679946;29;1424;-85
2022/01/01 01:00:06;;;;;;;27.98;18.88;;;;;;;15.73;61.98;101673.00;679919;29;1167;-85
2022/01/01 01:00:27;;;;;;;34.95;20.35;;;;;;;15.62;61.87;101662.25;682452;28;1916;-84
2022/01/01 01:00:47;;;;;;;37.27;21.20;;;;;;;15.66;61.92;101659.72;680260;29;788;-85
2022/01/01 01:01:08;;;;;;;38.15;20.95;;;;;;;15.67;62.07;101658.84;681358;29;1302;-85
2022/01/01 01:01:29;;;;;;;33.08;19.52;;;;;;;15.70;61.85;101665.06;686197;28;1206;-85
2022/01/01 01:01:49;;;;;;;31.50;19.27;;;;;;;15.69;61.73;101665.03;681059;29;1735;-85
2022/01/01 01:02:10;;;;;;;28.55;18.77;;;;;;;15.72;61.59;101667.69;679978;29;1151;-87
2022/01/01 01:02:33;;;;;;;33.28;19.20;;;;;;;15.61;61.77;101657.84;677282;29;1196;-84
2022/01/01 01:02:57;;;;;;;33.53;18.75;;;;;;;15.65;61.84;101668.44;680024;29;1389;-85
2022/01/01 01:03:18;;;;;;;37.60;19.63;;;;;;;15.66;61.92;101676.38;687654;28;1325;-85
2022/01/01 01:03:39;;;;;;;32.45;19.00;;;;;;;15.65;61.91;101679.84;680035;29;1307;-83
2022/01/01 01:03:59;;;;;;;33.53;19.07;;;;;;;15.61;61.96;101678.91;677413;29;1191;-85
2022/01/01 01:04:20;;;;;;;31.42;18.80;;;;;;;15.66;61.80;101673.72;678927;29;1263;-85
2022/01/01 01:04:40;;;;;;;33.53;19.10;;;;;;;15.60;61.84;101666.59;677454;29;919;-84
2022/01/01 01:05:01;;;;;;;31.20;18.70;;;;;;;15.65;62.03;101676.31;680150;29;996;-85
2022/01/01 01:05:21;;;;;;;30.80;18.77;;;;;;;15.63;62.00;101676.31;682362;29;1300;-85
2022/01/01 01:05:45;;;;;;;28.23;18.60;;;;;;;15.63;61.99;101677.19;680099;29;1283;-84
2022/01/01 01:06:06;;;;;;;27.30;18.23;;;;;;;15.58;62.03;101673.59;674793;29;1204;-85
2022/01/01 01:06:26;;;;;;;27.25;18.17;;;;;;;15.59;62.08;101679.72;677202;29;1700;-85
2022/01/01 01:06:47;;;;;;;28.33;18.30;;;;;;;15.57;62.37;101676.16;685390;28;1343;-84
2022/01/01 01:07:08;;;;;;;29.50;18.10;;;;;;;15.58;62.18;101677.94;685316;28;1189;-85
2022/01/01 01:07:28;;;;;;;30.77;17.98;;;;;;;15.59;61.96;101670.09;681388;29;1287;-84
2022/01/01 01:07:49;;;;;;;30.60;17.48;;;;;;;15.66;62.01;101681.63;679910;29;1215;-85
2022/01/01 01:08:11;;;;;;;30.17;18.00;;;;;;;15.64;61.97;101691.25;687764;28;1080;-85
2022/01/01 01:08:32;;;;;;;28.40;18.13;;;;;;;15.61;62.06;101686.78;682575;28;1333;-85
2022/01/01 01:08:54;;;;;;;28.90;18.40;;;;;;;15.59;62.05;101679.72;682509;29;1114;-85
2022/01/01 01:09:14;;;;;;;27.17;18.10;;;;;;;15.56;61.91;101685.78;682275;29;1377;-85
2022/01/01 01:09:35;;;;;;;27.27;18.13;;;;;;;15.56;62.13;101685.78;684100;28;1205;-85
2022/01/01 01:09:55;;;;;;;26.17;17.90;;;;;;;15.49;62.41;101674.25;682698;29;1124;-85
2022/01/01 01:10:16;;;;;;;27.17;17.45;;;;;;;15.53;62.24;101685.75;677410;29;1200;-86
2022/01/01 01:10:39;;;;;;;27.95;16.83;;;;;;;15.62;62.20;101699.09;682526;29;1197;-83
2022/01/01 01:11:01;;;;;;;28.95;16.90;;;;;;;15.55;62.22;101684.03;679866;29;1294;-85
2022/01/01 01:11:21;;;;;;;28.10;17.00;;;;;;;15.55;62.08;101680.53;679963;29;1314;-85
2022/01/01 01:11:45;;;;;;;27.63;16.67;;;;;;;15.60;62.10;101692.91;677462;29;1130;-84
2022/01/01 01:12:06;;;;;;;27.25;16.83;;;;;;;15.59;62.01;101690.22;677200;29;1375;-85
2022/01/01 01:12:36;;;;;;;26.63;17.05;;;;;;;15.56;61.92;101693.69;673824;29;1251;-85
2022/01/01 01:12:56;;;;;;;29.70;17.80;;;;;;;15.60;62.02;101698.16;674801;29;1236;-85
2022/01/01 01:13:17;;;;;;;30.20;18.60;;;;;;;15.58;61.90;101689.38;685108;28;1269;-85
2022/01/01 01:13:44;;;;;;;27.77;17.50;;;;;;;15.70;61.85;101704.53;682659;28;1290;-84
2022/01/01 01:14:08;;;;;;;26.63;17.45;;;;;;;15.56;61.96;101691.06;682560;29;1071;-85
2022/01/01 01:14:28;;;;;;;29.17;17.77;;;;;;;15.61;61.92;101692.06;681465;28;1252;-84
2022/01/01 01:14:49;;;;;;;31.27;18.10;;;;;;;15.62;61.82;101703.47;683192;28;1280;-84
2022/01/01 01:15:17;;;;;;;31.67;18.40;;;;;;;15.60;61.99;101703.44;682888;28;1399;-86
2022/01/01 01:15:37;;;;;;;32.65;17.83;;;;;;;15.51;62.13;101695.34;677255;29;819;-85
2022/01/01 01:15:58;;;;;;;30.42;17.45;;;;;;;15.49;62.29;101691.81;679981;29;1291;-85
2022/01/01 01:16:18;;;;;;;32.70;17.53;;;;;;;15.44;62.10;101686.41;685320;28;1249;-84
2022/01/01 01:16:39;;;;;;;33.78;17.77;;;;;;;15.49;62.29;101694.44;677410;29;1299;-85
2022/01/01 01:17:00;;;;;;;34.20;17.37;;;;;;;15.48;62.50;101704.06;682174;29;1934;-85
2022/01/01 01:17:20;;;;;;;30.40;17.02;;;;;;;15.43;62.25;101699.53;677265;29;1280;-85
2022/01/01 01:17:41;;;;;;;28.10;16.80;;;;;;;15.37;62.41;101689.78;680056;29;1192;-85
2022/01/01 01:18:04;;;;;;;28.40;17.03;;;;;;;15.45;62.47;101704.00;679779;28;1259;-85
2022/01/01 01:18:25;;;;;;;30.17;17.20;;;;;;;15.47;62.42;101706.63;682464;29;1136;-85
2022/01/01 01:18:45;;;;;;;30.47;17.20;;;;;;;15.46;62.46;101707.50;679543;29;1151;-84
2022/01/01 01:19:06;;;;;;;29.55;16.88;;;;;;;15.47;62.13;101704.00;676996;29;1213;-84
2022/01/01 01:19:26;;;;;;;29.03;16.90;;;;;;;15.48;62.24;101700.53;681957;29;1275;-85
2022/01/01 01:19:47;;;;;;;26.45;16.80;;;;;;;15.45;62.20;101697.84;680097;29;783;-83
2022/01/01 01:20:08;;;;;;;26.60;16.80;;;;;;;15.49;62.25;101699.69;674673;29;1205;-84
2022/01/01 01:20:29;;;;;;;27.33;17.17;;;;;;;15.51;62.30;101703.25;679599;29;1904;-85
2022/01/01 01:20:49;;;;;;;26.60;16.75;;;;;;;15.49;62.34;101699.69;682648;29;1303;-85
2022/01/01 01:21:10;;;;;;;23.87;16.00;;;;;;;15.52;62.25;101705.00;680338;29;1314;-85
2022/01/01 01:21:30;;;;;;;23.38;15.23;;;;;;;15.48;62.37;101692.63;681683;29;1215;-85
2022/01/01 01:21:51;;;;;;;25.50;15.77;;;;;;;15.52;62.47;101717.25;677438;29;1388;-85
2022/01/01 01:22:12;;;;;;;27.05;16.63;;;;;;;15.49;62.24;101704.94;682489;29;1493;-85
2022/01/01 01:22:32;;;;;;;29.73;17.10;;;;;;;15.52;62.07;101705.00;681978;29;1284;-84
2022/01/01 01:22:53;;;;;;;30.20;17.47;;;;;;;15.52;62.19;101705.00;679954;29;1199;-85
2022/01/01 01:23:14;;;;;;;29.48;17.15;;;;;;;15.49;62.27;101699.69;674657;29;1286;-85
2022/01/01 01:23:34;;;;;;;26.95;16.75;;;;;;;15.57;62.15;101713.91;676848;29;1288;-85
2022/01/01 01:23:55;;;;;;;25.80;16.25;;;;;;;15.55;62.06;101710.31;680425;29;1175;-85
2022/01/01 01:24:16;;;;;;;27.50;16.13;;;;;;;15.55;62.00;101710.31;679783;29;1189;-84
2022/01/01 01:24:37;;;;;;;27.25;16.40;;;;;;;15.49;62.13;101705.81;677438;29;764;-85
2022/01/01 01:24:59;;;;;;;29.88;17.17;;;;;;;15.51;62.02;101716.38;671611;29;1390;-85
2022/01/01 01:25:22;;;;;;;29.67;16.85;;;;;;;15.54;62.23;101716.44;681963;28;1248;-84
2022/01/01 01:25:43;;;;;;;28.48;16.50;;;;;;;15.52;62.02;101714.63;679817;29;1266;-85
2022/01/01 01:26:03;;;;;;;27.87;16.73;;;;;;;15.50;62.31;101717.25;677288;29;1147;-85
2022/01/01 01:26:28;;;;;;;29.60;17.20;;;;;;;15.44;62.27;101712.72;680908;29;1284;-85
2022/01/01 01:26:49;;;;;;;31.10;17.40;;;;;;;15.43;62.08;101710.06;685416;28;859;-84
2022/01/01 01:27:09;;;;;;;31.00;16.70;;;;;;;15.48;62.18;101714.56;682523;29;1190;-84
2022/01/01 01:27:30;;;;;;;32.47;16.83;;;;;;;15.49;62.29;101720.75;679989;29;1290;-85
2022/01/01 01:27:51;;;;;;;31.48;17.00;;;;;;;15.51;62.33;101708.50;679967;29;1302;-84
2022/01/01 01:28:14;;;;;;;29.10;16.88;;;;;;;15.52;62.09;101710.28;680044;29;1056;-85
2022/01/01 01:28:35;;;;;;;26.50;16.40;;;;;;;15.54;62.08;101698.03;680042;29;1358;-85
2022/01/01 01:28:57;;;;;;;27.65;16.25;;;;;;;15.60;61.56;101708.69;680177;29;1011;-85
2022/01/01 01:29:19;;;;;;;31.13;17.52;;;;;;;15.56;62.01;101706.84;677076;29;1355;-85
2022/01/01 01:29:42;;;;;;;30.80;17.50;;;;;;;15.53;62.13;101706.78;677364;29;1212;-85
2022/01/01 01:30:10;;;;;;;27.55;16.80;;;;;;;15.50;62.03;101698.84;679423;29;1341;-85
2022/01/01 01:30:31;;;;;;;28.00;17.10;;;;;;;15.47;62.10;101698.75;684327;28;1481;-84
2022/01/01 01:30:51;;;;;;;27.08;16.92;;;;;;;15.49;62.12;101704.94;685267;28;1274;-85
2022/01/01 01:31:12;;;;;;;25.83;16.80;;;;;;;15.45;62.12;101708.34;685296;28;1143;-84
2022/01/01 01:31:32;;;;;;;24.85;16.98;;;;;;;15.46;62.18;101710.13;682057;29;1283;-85
2022/01/01 01:31:53;;;;;;;24.30;16.70;;;;;;;15.47;62.13;101702.28;677122;28;1195;-86
2022/01/01 01:32:13;;;;;;;26.00;16.50;;;;;;;15.61;61.97;101723.63;679929;29;1464;-84
2022/01/01 01:32:34;;;;;;;26.95;16.23;;;;;;;15.52;61.70;101704.09;678874;29;1342;-85
2022/01/01 01:32:55;;;;;;;29.35;16.77;;;;;;;15.56;62.15;101721.75;682837;28;1234;-85
2022/01/01 01:33:15;;;;;;;30.00;16.37;;;;;;;15.47;62.07;101698.75;677450;29;1105;-85
2022/01/01 01:33:36;;;;;;;27.52;15.88;;;;;;;15.52;61.98;101707.63;681589;28;1304;-85
2022/01/01 01:33:57;;;;;;;26.07;15.70;;;;;;;15.44;62.08;101691.66;682560;29;959;-85
2022/01/01 01:34:17;;;;;;;24.38;15.88;;;;;;;15.49;62.10;101699.69;677294;29;1428;-85
2022/01/01 01:34:38;;;;;;;25.20;15.70;;;;;;;15.51;62.04;101708.50;677358;29;1063;-85
2022/01/01 01:34:58;;;;;;;26.80;15.50;;;;;;;15.49;62.07;101707.59;677465;29;1209;-85
2022/01/01 01:35:19;;;;;;;26.60;15.60;;;;;;;15.49;62.01;101699.69;682747;28;1281;-85
2022/01/01 01:35:40;;;;;;;25.67;15.48;;;;;;;15.55;62.07;101718.22;677372;28;1268;-85
2022/01/01 01:36:00;;;;;;;24.30;15.20;;;;;;;15.55;62.01;101712.97;677352;29;1166;-85
2022/01/01 01:36:21;;;;;;;27.65;16.00;;;;;;;15.61;61.95;101721.00;682420;28;1196;-85
2022/01/01 01:36:41;;;;;;;27.67;16.40;;;;;;;15.51;61.96;101705.88;680026;29;823;-84
2022/01/01 01:37:02;;;;;;;26.83;16.40;;;;;;;15.48;61.89;101706.69;682422;29;1236;-85
2022/01/01 01:37:23;;;;;;;24.52;15.48;;;;;;;15.48;62.01;101705.78;677382;29;1200;-85
2022/01/01 01:37:43;;;;;;;26.00;15.20;;;;;;;15.52;62.16;101715.53;679902;28;1336;-85
2022/01/01 01:38:05;;;;;;;29.17;15.27;;;;;;;15.51;62.11;101708.50;677315;29;1191;-85
2022/01/01 01:38:25;;;;;;;30.50;15.27;;;;;;;15.47;61.99;101702.28;683429;28;1321;-85